sensor_id;sensor_type;location;lat;lon;timestamp;P1;durP1;ratioP1;P2;durP2;ratioP2
73104;SDS011;61296;50.526;30.792;2023-06-10T00:02:03;10.07;;;6.40;;
73104;SDS011;61296;50.526;30.792;2023-06-10T00:17:22;8.27;;;5.45;;
73104;SDS011;61296;50.526;30.792;2023-06-10T00:32:42;9.65;;;6.97;;
73104;SDS011;61296;50.526;30.792;2023-06-10T00:48:02;9.98;;;7.10;;
73104;SDS011;61296;50.526;30.792;2023-06-10T01:03:23;12.23;;;8.32;;
73104;SDS011;61296;50.526;30.792;2023-06-10T01:18:42;10.63;;;7.15;;
73104;SDS011;61296;50.526;30.792;2023-06-10T01:34:03;10.48;;;7.82;;
73104;SDS011;61296;50.526;30.792;2023-06-10T01:49:27;11.47;;;7.50;;
73104;SDS011;61296;50.526;30.792;2023-06-10T02:04:47;9.23;;;7.60;;
73104;SDS011;61296;50.526;30.792;2023-06-10T02:20:07;10.45;;;7.95;;
73104;SDS011;61296;50.526;30.792;2023-06-10T02:35:29;9.50;;;7.50;;
73104;SDS011;61296;50.526;30.792;2023-06-10T02:50:49;9.68;;;7.32;;
73104;SDS011;61296;50.526;30.792;2023-06-10T03:06:18;10.15;;;7.85;;
73104;SDS011;61296;50.526;30.792;2023-06-10T03:21:37;10.45;;;7.63;;
73104;SDS011;61296;50.526;30.792;2023-06-10T03:36:58;11.65;;;8.02;;
73104;SDS011;61296;50.526;30.792;2023-06-10T03:52:17;7.85;;;7.00;;
73104;SDS011;61296;50.526;30.792;2023-06-10T04:07:37;9.07;;;6.90;;
73104;SDS011;61296;50.526;30.792;2023-06-10T04:22:58;14.10;;;6.88;;
73104;SDS011;61296;50.526;30.792;2023-06-10T04:38:19;9.85;;;6.88;;
73104;SDS011;61296;50.526;30.792;2023-06-10T04:53:38;12.23;;;6.82;;
73104;SDS011;61296;50.526;30.792;2023-06-10T05:08:58;9.00;;;6.60;;
73104;SDS011;61296;50.526;30.792;2023-06-10T05:24:17;11.73;;;6.25;;
73104;SDS011;61296;50.526;30.792;2023-06-10T05:39:37;7.63;;;5.95;;
73104;SDS011;61296;50.526;30.792;2023-06-10T05:54:56;6.22;;;5.57;;
73104;SDS011;61296;50.526;30.792;2023-06-10T06:10:16;9.57;;;5.85;;
73104;SDS011;61296;50.526;30.792;2023-06-10T06:25:36;6.93;;;5.93;;
73104;SDS011;61296;50.526;30.792;2023-06-10T06:40:57;9.30;;;5.75;;
73104;SDS011;61296;50.526;30.792;2023-06-10T06:56:21;8.00;;;6.22;;
73104;SDS011;61296;50.526;30.792;2023-06-10T07:11:42;8.45;;;6.10;;
73104;SDS011;61296;50.526;30.792;2023-06-10T07:27:02;8.88;;;5.55;;
73104;SDS011;61296;50.526;30.792;2023-06-10T07:42:21;7.22;;;5.57;;
73104;SDS011;61296;50.526;30.792;2023-06-10T07:57:42;7.95;;;5.75;;
73104;SDS011;61296;50.526;30.792;2023-06-10T08:13:02;7.45;;;5.70;;
73104;SDS011;61296;50.526;30.792;2023-06-10T08:28:21;6.97;;;5.70;;
73104;SDS011;61296;50.526;30.792;2023-06-10T08:43:44;10.70;;;5.85;;
73104;SDS011;61296;50.526;30.792;2023-06-10T08:59:06;9.15;;;5.82;;
73104;SDS011;61296;50.526;30.792;2023-06-10T09:14:28;7.07;;;5.40;;
73104;SDS011;61296;50.526;30.792;2023-06-10T09:45:14;9.68;;;5.75;;
73104;SDS011;61296;50.526;30.792;2023-06-10T10:00:34;7.00;;;5.88;;
73104;SDS011;61296;50.526;30.792;2023-06-10T10:15:54;9.40;;;6.60;;
73104;SDS011;61296;50.526;30.792;2023-06-10T10:31:18;9.10;;;5.35;;
73104;SDS011;61296;50.526;30.792;2023-06-10T10:46:43;9.05;;;5.38;;
73104;SDS011;61296;50.526;30.792;2023-06-10T11:02:03;6.13;;;5.53;;
73104;SDS011;61296;50.526;30.792;2023-06-10T11:17:22;7.57;;;5.60;;
73104;SDS011;61296;50.526;30.792;2023-06-10T11:32:42;6.80;;;6.13;;
73104;SDS011;61296;50.526;30.792;2023-06-10T11:48:02;7.82;;;6.25;;
73104;SDS011;61296;50.526;30.792;2023-06-10T12:03:21;8.50;;;5.93;;
73104;SDS011;61296;50.526;30.792;2023-06-10T12:18:42;11.52;;;6.45;;
73104;SDS011;61296;50.526;30.792;2023-06-10T12:34:09;7.00;;;5.70;;
73104;SDS011;61296;50.526;30.792;2023-06-10T12:49:28;6.63;;;5.22;;
73104;SDS011;61296;50.526;30.792;2023-06-10T13:04:48;4.65;;;4.05;;
73104;SDS011;61296;50.526;30.792;2023-06-10T13:20:07;9.40;;;3.15;;
73104;SDS011;61296;50.526;30.792;2023-06-10T13:35:26;9.65;;;3.90;;
73104;SDS011;61296;50.526;30.792;2023-06-10T13:50:46;27.42;;;12.63;;
73104;SDS011;61296;50.526;30.792;2023-06-10T14:06:05;11.95;;;8.95;;
73104;SDS011;61296;50.526;30.792;2023-06-10T14:21:24;15.77;;;12.13;;
73104;SDS011;61296;50.526;30.792;2023-06-10T14:36:43;7.68;;;6.88;;
73104;SDS011;61296;50.526;30.792;2023-06-10T14:52:02;9.40;;;6.68;;
73104;SDS011;61296;50.526;30.792;2023-06-10T15:07:21;15.32;;;9.85;;
73104;SDS011;61296;50.526;30.792;2023-06-10T15:22:40;14.35;;;11.98;;
73104;SDS011;61296;50.526;30.792;2023-06-10T15:37:59;18.95;;;13.00;;
73104;SDS011;61296;50.526;30.792;2023-06-10T15:53:19;18.75;;;13.63;;
73104;SDS011;61296;50.526;30.792;2023-06-10T16:08:38;16.58;;;14.48;;
73104;SDS011;61296;50.526;30.792;2023-06-10T16:23:58;17.10;;;14.02;;
73104;SDS011;61296;50.526;30.792;2023-06-10T16:39:17;17.95;;;13.20;;
73104;SDS011;61296;50.526;30.792;2023-06-10T16:54:36;17.25;;;13.77;;
73104;SDS011;61296;50.526;30.792;2023-06-10T17:09:56;16.75;;;14.82;;
73104;SDS011;61296;50.526;30.792;2023-06-10T17:25:15;21.80;;;18.02;;
73104;SDS011;61296;50.526;30.792;2023-06-10T17:40:34;18.60;;;14.40;;
73104;SDS011;61296;50.526;30.792;2023-06-10T17:55:54;12.27;;;9.20;;
73104;SDS011;61296;50.526;30.792;2023-06-10T18:11:13;13.88;;;10.77;;
73104;SDS011;61296;50.526;30.792;2023-06-10T18:26:32;10.80;;;8.75;;
73104;SDS011;61296;50.526;30.792;2023-06-10T18:41:51;11.05;;;8.23;;
73104;SDS011;61296;50.526;30.792;2023-06-10T18:57:13;9.38;;;8.38;;
73104;SDS011;61296;50.526;30.792;2023-06-10T19:12:33;13.18;;;9.18;;
73104;SDS011;61296;50.526;30.792;2023-06-10T19:27:53;14.60;;;10.57;;
73104;SDS011;61296;50.526;30.792;2023-06-10T19:43:12;17.02;;;13.18;;
73104;SDS011;61296;50.526;30.792;2023-06-10T19:58:32;18.13;;;13.50;;
73104;SDS011;61296;50.526;30.792;2023-06-10T20:13:51;16.20;;;12.20;;
73104;SDS011;61296;50.526;30.792;2023-06-10T20:29:11;17.25;;;12.40;;
73104;SDS011;61296;50.526;30.792;2023-06-10T20:44:30;20.27;;;15.15;;
73104;SDS011;61296;50.526;30.792;2023-06-10T20:59:50;27.10;;;20.75;;
73104;SDS011;61296;50.526;30.792;2023-06-10T21:15:09;22.25;;;15.18;;
73104;SDS011;61296;50.526;30.792;2023-06-10T21:30:28;18.85;;;13.63;;
73104;SDS011;61296;50.526;30.792;2023-06-10T21:45:48;17.08;;;14.02;;
73104;SDS011;61296;50.526;30.792;2023-06-10T22:01:07;24.40;;;17.38;;
73104;SDS011;61296;50.526;30.792;2023-06-10T22:16:27;26.30;;;20.27;;
73104;SDS011;61296;50.526;30.792;2023-06-10T22:31:46;35.75;;;22.23;;
73104;SDS011;61296;50.526;30.792;2023-06-10T22:47:05;36.78;;;23.60;;
73104;SDS011;61296;50.526;30.792;2023-06-10T23:02:25;39.05;;;24.15;;
73104;SDS011;61296;50.526;30.792;2023-06-10T23:17:44;34.92;;;22.45;;
73104;SDS011;61296;50.526;30.792;2023-06-10T23:33:06;22.95;;;16.77;;
73104;SDS011;61296;50.526;30.792;2023-06-10T23:48:26;15.98;;;11.65;;
